sensor_id;sensor_type;location;lat;lon;timestamp;pressure;altitude;pressure_sealevel;temperature;humidity
50356;BME280;36264;51.296;-0.602;2022-09-12T00:00:25;101210.81;;;14.32;92.05
50356;BME280;36264;51.296;-0.602;2022-09-12T00:02:52;101210.59;;;14.39;92.16
50356;BME280;36264;51.296;-0.602;2022-09-12T00:05:18;101206.84;;;14.44;92.19
50356;BME280;36264;51.296;-0.602;2022-09-12T00:07:43;101207.59;;;14.48;92.27
50356;BME280;36264;51.296;-0.602;2022-09-12T00:10:08;101203.09;;;14.52;92.52
50356;BME280;36264;51.296;-0.602;2022-09-12T00:12:34;101200.38;;;14.55;92.48
50356;BME280;36264;51.296;-0.602;2022-09-12T00:14:59;101200.31;;;14.56;92.54
50356;BME280;36264;51.296;-0.602;2022-09-12T00:17:24;101191.59;;;14.56;92.46
50356;BME280;36264;51.296;-0.602;2022-09-12T00:19:50;101197.75;;;14.55;92.60
50356;BME280;36264;51.296;-0.602;2022-09-12T00:22:15;101189.91;;;14.55;92.63
50356;BME280;36264;51.296;-0.602;2022-09-12T00:24:41;101187.28;;;14.55;92.61
50356;BME280;36264;51.296;-0.602;2022-09-12T00:27:06;101176.38;;;14.45;92.72
50356;BME280;36264;51.296;-0.602;2022-09-12T00:29:31;101178.84;;;14.48;92.79
50356;BME280;36264;51.296;-0.602;2022-09-12T00:31:57;101182.19;;;14.52;93.19
50356;BME280;36264;51.296;-0.602;2022-09-12T00:34:22;101180.34;;;14.54;93.45
50356;BME280;36264;51.296;-0.602;2022-09-12T00:36:47;101175.06;;;14.55;93.64
50356;BME280;36264;51.296;-0.602;2022-09-12T00:39:16;101170.56;;;14.59;93.41
50356;BME280;36264;51.296;-0.602;2022-09-12T00:41:42;101175.75;;;14.60;94.08
50356;BME280;36264;51.296;-0.602;2022-09-12T00:49:23;101173.81;;;14.65;96.80
50356;BME280;36264;51.296;-0.602;2022-09-12T00:51:57;101173.66;;;14.68;94.28
50356;BME280;36264;51.296;-0.602;2022-09-12T00:54:30;101176.16;;;14.72;93.94
50356;BME280;36264;51.296;-0.602;2022-09-12T00:57:00;101174.47;;;14.71;94.09
50356;BME280;36264;51.296;-0.602;2022-09-12T00:59:28;101174.41;;;14.72;94.87
50356;BME280;36264;51.296;-0.602;2022-09-12T01:01:56;101173.47;;;14.73;95.19
50356;BME280;36264;51.296;-0.602;2022-09-12T01:04:25;101169.00;;;14.77;94.64
50356;BME280;36264;51.296;-0.602;2022-09-12T01:06:53;101166.38;;;14.77;95.50
50356;BME280;36264;51.296;-0.602;2022-09-12T01:09:21;101166.25;;;14.80;95.39
50356;BME280;36264;51.296;-0.602;2022-09-12T01:11:49;101165.31;;;14.81;95.10
50356;BME280;36264;51.296;-0.602;2022-09-12T01:14:16;101166.97;;;14.83;95.64
50356;BME280;36264;51.296;-0.602;2022-09-12T01:16:42;101168.56;;;14.86;95.94
50356;BME280;36264;51.296;-0.602;2022-09-12T01:25:07;101156.44;;;14.85;96.67
50356;BME280;36264;51.296;-0.602;2022-09-12T01:27:57;101163.28;;;14.88;96.34
50356;BME280;36264;51.296;-0.602;2022-09-12T01:30:50;101157.09;;;14.90;96.34
50356;BME280;36264;51.296;-0.602;2022-09-12T01:36:21;101151.59;;;14.96;96.28
50356;BME280;36264;51.296;-0.602;2022-09-12T01:41:41;101140.09;;;15.00;96.40
50356;BME280;36264;51.296;-0.602;2022-09-12T01:44:22;101133.03;;;15.02;96.00
50356;BME280;36264;51.296;-0.602;2022-09-12T01:47:11;101131.19;;;15.04;96.41
50356;BME280;36264;51.296;-0.602;2022-09-12T01:52:17;101125.81;;;15.08;96.01
50356;BME280;36264;51.296;-0.602;2022-09-12T01:54:49;101118.81;;;15.08;96.02
50356;BME280;36264;51.296;-0.602;2022-09-12T01:57:21;101116.06;;;15.11;95.82
50356;BME280;36264;51.296;-0.602;2022-09-12T01:59:54;101114.38;;;15.10;95.91
50356;BME280;36264;51.296;-0.602;2022-09-12T02:02:42;101122.16;;;15.12;96.19
50356;BME280;36264;51.296;-0.602;2022-09-12T02:07:47;101121.34;;;15.10;96.10
50356;BME280;36264;51.296;-0.602;2022-09-12T02:10:26;101120.53;;;15.09;96.04
50356;BME280;36264;51.296;-0.602;2022-09-12T02:12:55;101117.13;;;15.07;96.65
50356;BME280;36264;51.296;-0.602;2022-09-12T02:15:27;101105.78;;;15.07;96.21
50356;BME280;36264;51.296;-0.602;2022-09-12T02:17:57;101106.72;;;15.06;96.16
50356;BME280;36264;51.296;-0.602;2022-09-12T02:20:28;101101.78;;;14.99;96.00
50356;BME280;36264;51.296;-0.602;2022-09-12T02:22:55;101102.66;;;14.98;96.00
50356;BME280;36264;51.296;-0.602;2022-09-12T02:25:23;101098.56;;;14.93;96.03
50356;BME280;36264;51.296;-0.602;2022-09-12T02:27:54;101097.91;;;14.88;96.37
50356;BME280;36264;51.296;-0.602;2022-09-12T02:30:23;101087.59;;;14.84;96.58
50356;BME280;36264;51.296;-0.602;2022-09-12T02:35:56;101076.47;;;14.79;96.67
50356;BME280;36264;51.296;-0.602;2022-09-12T02:40:50;101075.84;;;14.74;96.42
50356;BME280;36264;51.296;-0.602;2022-09-12T02:43:16;101075.91;;;14.73;96.14
50356;BME280;36264;51.296;-0.602;2022-09-12T02:45:41;101074.19;;;14.72;96.11
50356;BME280;36264;51.296;-0.602;2022-09-12T02:48:14;101071.56;;;14.72;96.48
50356;BME280;36264;51.296;-0.602;2022-09-12T02:50:42;101074.13;;;14.73;96.27
50356;BME280;36264;51.296;-0.602;2022-09-12T02:53:09;101069.75;;;14.74;96.34
50356;BME280;36264;51.296;-0.602;2022-09-12T02:55:35;101062.75;;;14.74;96.49
50356;BME280;36264;51.296;-0.602;2022-09-12T02:58:04;101064.47;;;14.75;96.38
50356;BME280;36264;51.296;-0.602;2022-09-12T03:00:36;101066.22;;;14.75;96.08
50356;BME280;36264;51.296;-0.602;2022-09-12T03:03:19;101060.22;;;14.73;96.27
50356;BME280;36264;51.296;-0.602;2022-09-12T03:05:55;101068.13;;;14.71;96.34
50356;BME280;36264;51.296;-0.602;2022-09-12T03:16:38;101067.72;;;14.60;96.64
50356;BME280;36264;51.296;-0.602;2022-09-12T03:24:31;101050.38;;;14.57;96.56
50356;BME280;36264;51.296;-0.602;2022-09-12T03:29:29;101057.50;;;14.54;96.49
50356;BME280;36264;51.296;-0.602;2022-09-12T03:31:57;101047.88;;;14.54;96.58
50356;BME280;36264;51.296;-0.602;2022-09-12T03:34:24;101055.72;;;14.54;96.83
50356;BME280;36264;51.296;-0.602;2022-09-12T03:36:51;101048.75;;;14.55;97.32
50356;BME280;36264;51.296;-0.602;2022-09-12T03:39:20;101052.06;;;14.60;97.26
50356;BME280;36264;51.296;-0.602;2022-09-12T03:41:45;101047.66;;;14.60;97.45
50356;BME280;36264;51.296;-0.602;2022-09-12T03:44:11;101047.53;;;14.63;97.16
50356;BME280;36264;51.296;-0.602;2022-09-12T03:46:36;101044.00;;;14.64;97.22
50356;BME280;36264;51.296;-0.602;2022-09-12T03:49:01;101032.66;;;14.65;97.34
50356;BME280;36264;51.296;-0.602;2022-09-12T03:51:27;101030.88;;;14.66;97.34
50356;BME280;36264;51.296;-0.602;2022-09-12T03:53:53;101030.03;;;14.65;97.41
50356;BME280;36264;51.296;-0.602;2022-09-12T03:56:19;101023.09;;;14.64;97.37
50356;BME280;36264;51.296;-0.602;2022-09-12T03:58:44;101018.72;;;14.65;97.43
50356;BME280;36264;51.296;-0.602;2022-09-12T04:01:12;101016.03;;;14.66;97.42
50356;BME280;36264;51.296;-0.602;2022-09-12T04:03:39;101011.56;;;14.68;97.97
50356;BME280;36264;51.296;-0.602;2022-09-12T04:06:06;101006.41;;;14.67;97.44
50356;BME280;36264;51.296;-0.602;2022-09-12T04:08:32;101006.34;;;14.68;97.99
50356;BME280;36264;51.296;-0.602;2022-09-12T04:11:08;101015.75;;;14.73;98.14
50356;BME280;36264;51.296;-0.602;2022-09-12T04:13:34;101015.75;;;14.73;98.05
50356;BME280;36264;51.296;-0.602;2022-09-12T04:16:00;101018.31;;;14.74;97.88
50356;BME280;36264;51.296;-0.602;2022-09-12T04:18:26;101016.47;;;14.76;98.73
50356;BME280;36264;51.296;-0.602;2022-09-12T04:20:51;101018.09;;;14.79;99.28
50356;BME280;36264;51.296;-0.602;2022-09-12T04:23:17;101021.56;;;14.79;98.78
50356;BME280;36264;51.296;-0.602;2022-09-12T04:25:43;101027.66;;;14.80;98.71
50356;BME280;36264;51.296;-0.602;2022-09-12T04:28:08;101019.81;;;14.80;98.55
50356;BME280;36264;51.296;-0.602;2022-09-12T04:30:34;101019.00;;;14.78;98.74
50356;BME280;36264;51.296;-0.602;2022-09-12T04:33:00;101018.25;;;14.76;98.63
50356;BME280;36264;51.296;-0.602;2022-09-12T04:35:25;101013.09;;;14.74;98.78
50356;BME280;36264;51.296;-0.602;2022-09-12T04:37:51;101015.63;;;14.76;98.83
50356;BME280;36264;51.296;-0.602;2022-09-12T04:40:17;101022.44;;;14.80;99.61
50356;BME280;36264;51.296;-0.602;2022-09-12T04:42:43;101025.75;;;14.83;99.36
50356;BME280;36264;51.296;-0.602;2022-09-12T04:45:08;101014.22;;;14.88;99.24
50356;BME280;36264;51.296;-0.602;2022-09-12T04:47:34;101004.56;;;14.90;99.06
50356;BME280;36264;51.296;-0.602;2022-09-12T04:49:59;101012.28;;;14.93;99.65
50356;BME280;36264;51.296;-0.602;2022-09-12T04:52:25;101004.28;;;14.96;99.45
50356;BME280;36264;51.296;-0.602;2022-09-12T04:54:50;101005.91;;;14.98;99.59
50356;BME280;36264;51.296;-0.602;2022-09-12T04:57:17;101001.47;;;15.00;99.64
50356;BME280;36264;51.296;-0.602;2022-09-12T04:59:42;100996.31;;;14.99;99.88
50356;BME280;36264;51.296;-0.602;2022-09-12T05:02:08;101000.47;;;15.03;99.96
50356;BME280;36264;51.296;-0.602;2022-09-12T05:04:33;101002.94;;;15.06;99.71
50356;BME280;36264;51.296;-0.602;2022-09-12T05:07:03;101006.31;;;15.08;99.80
50356;BME280;36264;51.296;-0.602;2022-09-12T05:09:29;101001.09;;;15.08;99.88
50356;BME280;36264;51.296;-0.602;2022-09-12T05:11:55;101001.97;;;15.09;99.73
50356;BME280;36264;51.296;-0.602;2022-09-12T05:14:20;101001.97;;;15.09;100.00
50356;BME280;36264;51.296;-0.602;2022-09-12T05:16:45;101002.88;;;15.08;100.00
50356;BME280;36264;51.296;-0.602;2022-09-12T05:19:11;101000.31;;;15.06;100.00
50356;BME280;36264;51.296;-0.602;2022-09-12T05:21:37;100996.09;;;15.03;99.99
50356;BME280;36264;51.296;-0.602;2022-09-12T05:24:03;100999.63;;;15.02;99.90
50356;BME280;36264;51.296;-0.602;2022-09-12T05:26:30;100998.84;;;15.00;99.76
50356;BME280;36264;51.296;-0.602;2022-09-12T05:28:55;100999.00;;;14.97;99.65
50356;BME280;36264;51.296;-0.602;2022-09-12T05:31:26;101004.28;;;14.96;99.56
50356;BME280;36264;51.296;-0.602;2022-09-12T05:33:54;101002.56;;;14.95;99.91
50356;BME280;36264;51.296;-0.602;2022-09-12T05:36:24;100998.25;;;14.94;99.60
50356;BME280;36264;51.296;-0.602;2022-09-12T05:38:50;101009.66;;;14.93;99.88
50356;BME280;36264;51.296;-0.602;2022-09-12T05:41:18;101009.78;;;14.90;99.96
50356;BME280;36264;51.296;-0.602;2022-09-12T05:43:44;101010.63;;;14.90;100.00
50356;BME280;36264;51.296;-0.602;2022-09-12T05:46:12;101010.56;;;14.92;100.00
50356;BME280;36264;51.296;-0.602;2022-09-12T05:48:39;101005.34;;;14.92;100.00
50356;BME280;36264;51.296;-0.602;2022-09-12T05:51:07;101014.09;;;14.91;99.96
50356;BME280;36264;51.296;-0.602;2022-09-12T05:53:34;101012.34;;;14.91;100.00
50356;BME280;36264;51.296;-0.602;2022-09-12T05:56:07;101007.94;;;14.92;100.00
50356;BME280;36264;51.296;-0.602;2022-09-12T05:58:34;101001.81;;;14.93;100.00
50356;BME280;36264;51.296;-0.602;2022-09-12T06:01:01;101003.41;;;14.95;100.00
50356;BME280;36264;51.296;-0.602;2022-09-12T06:03:27;101005.13;;;14.96;100.00
50356;BME280;36264;51.296;-0.602;2022-09-12T06:05:52;101003.28;;;14.98;100.00
50356;BME280;36264;51.296;-0.602;2022-09-12T06:08:18;101003.22;;;15.00;100.00
50356;BME280;36264;51.296;-0.602;2022-09-12T06:10:43;101007.47;;;15.02;100.00
50356;BME280;36264;51.296;-0.602;2022-09-12T06:13:09;101008.25;;;15.04;100.00
50356;BME280;36264;51.296;-0.602;2022-09-12T06:15:34;101007.31;;;15.06;100.00
50356;BME280;36264;51.296;-0.602;2022-09-12T06:17:59;101012.41;;;15.09;100.00
50356;BME280;36264;51.296;-0.602;2022-09-12T06:20:25;101014.97;;;15.10;100.00
50356;BME280;36264;51.296;-0.602;2022-09-12T06:22:52;101022.69;;;15.13;100.00
50356;BME280;36264;51.296;-0.602;2022-09-12T06:25:17;101022.53;;;15.16;100.00
50356;BME280;36264;51.296;-0.602;2022-09-12T06:27:43;101025.03;;;15.19;100.00
50356;BME280;36264;51.296;-0.602;2022-09-12T06:30:10;101019.66;;;15.23;100.00
50356;BME280;36264;51.296;-0.602;2022-09-12T06:32:36;101007.25;;;15.26;100.00
50356;BME280;36264;51.296;-0.602;2022-09-12T06:35:01;101008.03;;;15.28;100.00
50356;BME280;36264;51.296;-0.602;2022-09-12T06:37:27;101002.59;;;15.33;100.00
50356;BME280;36264;51.296;-0.602;2022-09-12T06:39:53;101009.44;;;15.35;100.00
50356;BME280;36264;51.296;-0.602;2022-09-12T06:42:18;101009.25;;;15.40;100.00
50356;BME280;36264;51.296;-0.602;2022-09-12T06:44:44;101019.53;;;15.43;100.00
50356;BME280;36264;51.296;-0.602;2022-09-12T06:47:09;101014.09;;;15.48;100.00
50356;BME280;36264;51.296;-0.602;2022-09-12T06:49:36;101016.50;;;15.52;100.00
50356;BME280;36264;51.296;-0.602;2022-09-12T06:52:01;101021.50;;;15.57;100.00
50356;BME280;36264;51.296;-0.602;2022-09-12T06:54:27;101020.59;;;15.58;100.00
50356;BME280;36264;51.296;-0.602;2022-09-12T06:56:52;101018.47;;;15.66;100.00
50356;BME280;36264;51.296;-0.602;2022-09-12T06:59:17;101024.31;;;15.71;100.00
50356;BME280;36264;51.296;-0.602;2022-09-12T07:01:44;101019.75;;;15.77;100.00
50356;BME280;36264;51.296;-0.602;2022-09-12T07:04:09;101025.63;;;15.82;100.00
50356;BME280;36264;51.296;-0.602;2022-09-12T07:06:39;101027.13;;;15.86;100.00
50356;BME280;36264;51.296;-0.602;2022-09-12T07:09:07;101026.91;;;15.90;100.00
50356;BME280;36264;51.296;-0.602;2022-09-12T07:11:35;101026.69;;;15.95;100.00
50356;BME280;36264;51.296;-0.602;2022-09-12T07:14:02;101023.09;;;15.98;100.00
50356;BME280;36264;51.296;-0.602;2022-09-12T07:16:28;101030.66;;;16.04;100.00
50356;BME280;36264;51.296;-0.602;2022-09-12T07:18:56;101034.72;;;16.09;100.00
50356;BME280;36264;51.296;-0.602;2022-09-12T07:21:22;101031.03;;;16.14;100.00
50356;BME280;36264;51.296;-0.602;2022-09-12T07:23:48;101030.81;;;16.18;100.00
50356;BME280;36264;51.296;-0.602;2022-09-12T07:26:15;101034.03;;;16.23;100.00
50356;BME280;36264;51.296;-0.602;2022-09-12T07:28:41;101025.88;;;16.29;100.00
50356;BME280;36264;51.296;-0.602;2022-09-12T07:31:09;101028.94;;;16.38;100.00
50356;BME280;36264;51.296;-0.602;2022-09-12T07:33:36;101031.25;;;16.44;100.00
50356;BME280;36264;51.296;-0.602;2022-09-12T07:36:02;101029.16;;;16.51;100.00
50356;BME280;36264;51.296;-0.602;2022-09-12T07:38:28;101030.63;;;16.56;100.00
50356;BME280;36264;51.296;-0.602;2022-09-12T07:40:54;101020.66;;;16.63;100.00
50356;BME280;36264;51.296;-0.602;2022-09-12T07:43:19;101014.44;;;16.65;100.00
50356;BME280;36264;51.296;-0.602;2022-09-12T07:45:44;101008.94;;;16.70;100.00
50356;BME280;36264;51.296;-0.602;2022-09-12T07:48:10;101001.75;;;16.74;100.00
50356;BME280;36264;51.296;-0.602;2022-09-12T07:50:36;100999.72;;;16.79;100.00
50356;BME280;36264;51.296;-0.602;2022-09-12T07:53:02;100992.44;;;16.84;100.00
50356;BME280;36264;51.296;-0.602;2022-09-12T07:55:28;101005.34;;;16.89;100.00
50356;BME280;36264;51.296;-0.602;2022-09-12T07:57:54;101000.72;;;16.94;100.00
50356;BME280;36264;51.296;-0.602;2022-09-12T08:00:19;101015.19;;;17.01;100.00
50356;BME280;36264;51.296;-0.602;2022-09-12T08:02:49;101017.50;;;17.07;100.00
50356;BME280;36264;51.296;-0.602;2022-09-12T08:05:15;101018.09;;;17.12;100.00
50356;BME280;36264;51.296;-0.602;2022-09-12T08:07:41;101029.00;;;17.20;100.00
50356;BME280;36264;51.296;-0.602;2022-09-12T08:10:06;101020.72;;;17.28;100.00
50356;BME280;36264;51.296;-0.602;2022-09-12T08:12:31;101015.97;;;17.35;100.00
50356;BME280;36264;51.296;-0.602;2022-09-12T08:14:58;101020.72;;;17.44;100.00
50356;BME280;36264;51.296;-0.602;2022-09-12T08:17:24;101020.31;;;17.52;100.00
50356;BME280;36264;51.296;-0.602;2022-09-12T08:19:50;101028.69;;;17.59;100.00
50356;BME280;36264;51.296;-0.602;2022-09-12T08:22:15;101019.63;;;17.64;100.00
50356;BME280;36264;51.296;-0.602;2022-09-12T08:24:42;101023.50;;;17.73;100.00
50356;BME280;36264;51.296;-0.602;2022-09-12T08:27:08;101028.41;;;17.79;100.00
50356;BME280;36264;51.296;-0.602;2022-09-12T08:29:33;101027.13;;;17.86;100.00
50356;BME280;36264;51.296;-0.602;2022-09-12T08:31:58;101024.94;;;17.95;100.00
50356;BME280;36264;51.296;-0.602;2022-09-12T08:34:24;101018.41;;;18.02;100.00
50356;BME280;36264;51.296;-0.602;2022-09-12T08:36:50;101015.41;;;18.08;100.00
50356;BME280;36264;51.296;-0.602;2022-09-12T08:39:18;101007.25;;;18.13;100.00
50356;BME280;36264;51.296;-0.602;2022-09-12T08:41:45;101012.31;;;18.16;100.00
50356;BME280;36264;51.296;-0.602;2022-09-12T08:52:41;100998.28;;;18.45;100.00
50356;BME280;36264;51.296;-0.602;2022-09-12T08:55:26;101004.81;;;18.54;100.00
50356;BME280;36264;51.296;-0.602;2022-09-12T08:57:55;101001.03;;;18.58;100.00
50356;BME280;36264;51.296;-0.602;2022-09-12T09:00:21;101005.72;;;18.68;100.00
50356;BME280;36264;51.296;-0.602;2022-09-12T09:03:13;101019.16;;;18.77;100.00
50356;BME280;36264;51.296;-0.602;2022-09-12T09:05:49;101016.09;;;18.85;100.00
50356;BME280;36264;51.296;-0.602;2022-09-12T09:08:25;101016.38;;;18.95;100.00
50356;BME280;36264;51.296;-0.602;2022-09-12T09:16:45;101000.66;;;19.08;100.00
50356;BME280;36264;51.296;-0.602;2022-09-12T09:19:17;101001.97;;;19.15;100.00
50356;BME280;36264;51.296;-0.602;2022-09-12T09:24:18;100994.81;;;19.17;100.00
50356;BME280;36264;51.296;-0.602;2022-09-12T09:26:56;100999.88;;;19.20;100.00
50356;BME280;36264;51.296;-0.602;2022-09-12T09:29:52;100994.44;;;19.23;99.79
50356;BME280;36264;51.296;-0.602;2022-09-12T09:32:35;100994.34;;;19.25;99.96
50356;BME280;36264;51.296;-0.602;2022-09-12T09:43:50;100953.50;;;19.32;99.29
50356;BME280;36264;51.296;-0.602;2022-09-12T09:46:16;100954.06;;;19.37;98.86
50356;BME280;36264;51.296;-0.602;2022-09-12T09:48:45;100965.22;;;19.41;98.61
50356;BME280;36264;51.296;-0.602;2022-09-12T09:51:12;100962.28;;;19.45;97.68
50356;BME280;36264;51.296;-0.602;2022-09-12T09:53:44;100961.25;;;19.48;97.13
50356;BME280;36264;51.296;-0.602;2022-09-12T09:58:43;100974.28;;;19.64;96.93
50356;BME280;36264;51.296;-0.602;2022-09-12T10:01:14;100960.59;;;19.71;96.67
50356;BME280;36264;51.296;-0.602;2022-09-12T10:03:50;100950.00;;;19.86;96.32
50356;BME280;36264;51.296;-0.602;2022-09-12T10:08:49;100947.41;;;20.12;95.47
50356;BME280;36264;51.296;-0.602;2022-09-12T10:13:50;100963.63;;;20.05;94.97
50356;BME280;36264;51.296;-0.602;2022-09-12T10:16:28;100955.72;;;20.05;94.88
50356;BME280;36264;51.296;-0.602;2022-09-12T10:18:57;100957.53;;;20.05;94.69
50356;BME280;36264;51.296;-0.602;2022-09-12T10:21:40;100946.78;;;20.08;94.75
50356;BME280;36264;51.296;-0.602;2022-09-12T10:26:51;100950.78;;;20.14;94.35
50356;BME280;36264;51.296;-0.602;2022-09-12T10:29:25;100945.19;;;20.18;94.32
50356;BME280;36264;51.296;-0.602;2022-09-12T10:31:57;100945.09;;;20.20;93.98
50356;BME280;36264;51.296;-0.602;2022-09-12T10:34:34;100936.03;;;20.24;93.95
50356;BME280;36264;51.296;-0.602;2022-09-12T10:37:05;100935.72;;;20.29;93.96
50356;BME280;36264;51.296;-0.602;2022-09-12T10:39:31;100938.25;;;20.30;93.88
50356;BME280;36264;51.296;-0.602;2022-09-12T10:41:59;100934.31;;;20.36;93.95
50356;BME280;36264;51.296;-0.602;2022-09-12T10:44:27;100930.41;;;20.41;93.68
50356;BME280;36264;51.296;-0.602;2022-09-12T10:46:55;100930.31;;;20.43;93.91
50356;BME280;36264;51.296;-0.602;2022-09-12T10:49:24;100926.50;;;20.47;93.55
50356;BME280;36264;51.296;-0.602;2022-09-12T10:51:51;100926.19;;;20.52;92.93
50356;BME280;36264;51.296;-0.602;2022-09-12T10:54:20;100927.66;;;20.56;93.32
50356;BME280;36264;51.296;-0.602;2022-09-12T11:02:31;100935.56;;;20.81;90.90
50356;BME280;36264;51.296;-0.602;2022-09-12T11:05:10;100924.34;;;20.91;91.01
50356;BME280;36264;51.296;-0.602;2022-09-12T11:07:45;100930.41;;;21.04;90.00
50356;BME280;36264;51.296;-0.602;2022-09-12T11:13:09;100930.78;;;21.24;88.68
50356;BME280;36264;51.296;-0.602;2022-09-12T11:15:58;100923.13;;;21.32;88.20
50356;BME280;36264;51.296;-0.602;2022-09-12T11:18:37;100927.53;;;21.31;88.92
50356;BME280;36264;51.296;-0.602;2022-09-12T11:35:24;100951.00;;;21.12;88.06
50356;BME280;36264;51.296;-0.602;2022-09-12T11:38:11;100945.03;;;21.21;88.32
50356;BME280;36264;51.296;-0.602;2022-09-12T11:43:48;100942.38;;;21.45;87.30
50356;BME280;36264;51.296;-0.602;2022-09-12T11:46:48;100934.03;;;21.51;87.79
50356;BME280;36264;51.296;-0.602;2022-09-12T11:51:53;100930.03;;;21.70;86.17
50356;BME280;36264;51.296;-0.602;2022-09-12T11:54:37;100921.88;;;21.73;82.89
50356;BME280;36264;51.296;-0.602;2022-09-12T11:57:22;100920.66;;;21.77;84.93
50356;BME280;36264;51.296;-0.602;2022-09-12T12:00:05;100935.59;;;21.89;84.32
50356;BME280;36264;51.296;-0.602;2022-09-12T12:05:39;100920.00;;;22.09;83.13
50356;BME280;36264;51.296;-0.602;2022-09-12T12:08:06;100912.47;;;22.16;81.31
50356;BME280;36264;51.296;-0.602;2022-09-12T12:13:03;100908.63;;;22.31;81.49
50356;BME280;36264;51.296;-0.602;2022-09-12T12:15:33;100903.84;;;22.36;81.84
50356;BME280;36264;51.296;-0.602;2022-09-12T12:18:06;100911.16;;;22.44;81.73
50356;BME280;36264;51.296;-0.602;2022-09-12T12:20:32;100903.72;;;22.49;81.07
50356;BME280;36264;51.296;-0.602;2022-09-12T12:22:58;100900.19;;;22.60;79.66
50356;BME280;36264;51.296;-0.602;2022-09-12T12:25:38;100898.53;;;22.70;75.88
50356;BME280;36264;51.296;-0.602;2022-09-12T12:28:04;100903.66;;;22.83;79.44
50356;BME280;36264;51.296;-0.602;2022-09-12T12:33:00;100884.00;;;23.08;73.12
50356;BME280;36264;51.296;-0.602;2022-09-12T12:38:00;100884.81;;;23.20;75.23
50356;BME280;36264;51.296;-0.602;2022-09-12T12:40:27;100872.09;;;23.35;74.90
50356;BME280;36264;51.296;-0.602;2022-09-12T12:43:01;100883.50;;;23.47;75.19
50356;BME280;36264;51.296;-0.602;2022-09-12T12:47:57;100880.66;;;23.60;74.79
50356;BME280;36264;51.296;-0.602;2022-09-12T12:50:26;100867.25;;;23.61;74.18
50356;BME280;36264;51.296;-0.602;2022-09-12T12:53:19;100869.66;;;23.64;70.58
50356;BME280;36264;51.296;-0.602;2022-09-12T12:55:49;100863.00;;;23.70;72.67
50356;BME280;36264;51.296;-0.602;2022-09-12T12:58:33;100869.00;;;23.72;69.55
50356;BME280;36264;51.296;-0.602;2022-09-12T13:01:18;100872.97;;;23.78;72.05
50356;BME280;36264;51.296;-0.602;2022-09-12T13:03:59;100876.78;;;23.85;70.48
50356;BME280;36264;51.296;-0.602;2022-09-12T13:08:59;100882.81;;;23.87;71.97
50356;BME280;36264;51.296;-0.602;2022-09-12T13:11:35;100880.16;;;23.87;72.19
50356;BME280;36264;51.296;-0.602;2022-09-12T13:14:05;100884.09;;;23.93;71.28
50356;BME280;36264;51.296;-0.602;2022-09-12T13:16:51;100880.78;;;24.00;69.33
50356;BME280;36264;51.296;-0.602;2022-09-12T13:19:23;100883.34;;;24.12;69.86
50356;BME280;36264;51.296;-0.602;2022-09-12T13:22:03;100879.34;;;24.17;64.24
50356;BME280;36264;51.296;-0.602;2022-09-12T13:24:29;100881.41;;;24.14;69.46
50356;BME280;36264;51.296;-0.602;2022-09-12T13:26:56;100890.09;;;24.16;70.99
50356;BME280;36264;51.296;-0.602;2022-09-12T13:29:26;100893.31;;;24.19;66.33
50356;BME280;36264;51.296;-0.602;2022-09-12T13:31:59;100892.88;;;24.14;63.96
50356;BME280;36264;51.296;-0.602;2022-09-12T13:34:33;100887.34;;;24.27;69.28
50356;BME280;36264;51.296;-0.602;2022-09-12T13:37:18;100893.47;;;24.28;60.79
50356;BME280;36264;51.296;-0.602;2022-09-12T13:42:40;100881.63;;;24.32;63.09
50356;BME280;36264;51.296;-0.602;2022-09-12T13:47:43;100866.44;;;24.44;71.04
50356;BME280;36264;51.296;-0.602;2022-09-12T13:50:30;100861.56;;;24.49;66.14
50356;BME280;36264;51.296;-0.602;2022-09-12T13:53:11;100862.28;;;24.51;66.93
50356;BME280;36264;51.296;-0.602;2022-09-12T13:55:41;100851.00;;;24.58;70.52
50356;BME280;36264;51.296;-0.602;2022-09-12T13:58:55;100842.06;;;24.69;63.23
50356;BME280;36264;51.296;-0.602;2022-09-12T14:01:23;100843.47;;;24.73;70.28
50356;BME280;36264;51.296;-0.602;2022-09-12T14:03:53;100842.25;;;24.87;70.44
50356;BME280;36264;51.296;-0.602;2022-09-12T14:06:45;100827.72;;;25.01;70.47
50356;BME280;36264;51.296;-0.602;2022-09-12T14:11:45;100832.22;;;25.30;68.89
50356;BME280;36264;51.296;-0.602;2022-09-12T14:14:18;100830.78;;;25.36;67.09
50356;BME280;36264;51.296;-0.602;2022-09-12T14:16:44;100830.66;;;25.37;69.02
50356;BME280;36264;51.296;-0.602;2022-09-12T14:19:11;100834.56;;;25.43;68.65
50356;BME280;36264;51.296;-0.602;2022-09-12T14:21:36;100833.84;;;25.41;68.71
50356;BME280;36264;51.296;-0.602;2022-09-12T14:24:04;100826.59;;;25.33;68.77
50356;BME280;36264;51.296;-0.602;2022-09-12T14:26:35;100825.03;;;25.21;69.25
50356;BME280;36264;51.296;-0.602;2022-09-12T14:29:05;100819.56;;;25.03;69.74
50356;BME280;36264;51.296;-0.602;2022-09-12T14:31:34;100816.78;;;24.94;69.71
50356;BME280;36264;51.296;-0.602;2022-09-12T14:34:10;100815.81;;;24.86;69.32
50356;BME280;36264;51.296;-0.602;2022-09-12T14:36:50;100814.00;;;24.76;69.74
50356;BME280;36264;51.296;-0.602;2022-09-12T14:39:32;100812.84;;;24.69;71.03
50356;BME280;36264;51.296;-0.602;2022-09-12T14:42:14;100813.72;;;24.60;70.03
50356;BME280;36264;51.296;-0.602;2022-09-12T14:45:00;100813.06;;;24.47;70.03
50356;BME280;36264;51.296;-0.602;2022-09-12T14:47:37;100823.81;;;24.35;70.92
50356;BME280;36264;51.296;-0.602;2022-09-12T14:50:15;100809.94;;;24.22;70.64
50356;BME280;36264;51.296;-0.602;2022-09-12T14:52:41;100825.00;;;24.21;72.61
50356;BME280;36264;51.296;-0.602;2022-09-12T14:55:22;100836.88;;;24.17;66.96
50356;BME280;36264;51.296;-0.602;2022-09-12T14:58:11;100839.22;;;24.11;69.63
50356;BME280;36264;51.296;-0.602;2022-09-12T15:00:55;100835.69;;;24.00;70.84
50356;BME280;36264;51.296;-0.602;2022-09-12T15:03:29;100838.03;;;23.94;70.65